createdAt,value
2023-03-15T00:00:45.881Z,1.26
2023-03-15T00:03:14.930Z,1.33
2023-03-15T00:05:45.970Z,1.39
2023-03-15T00:08:13.306Z,1.33
2023-03-15T00:10:44.186Z,1.25
2023-03-15T00:13:12.083Z,1.24
2023-03-15T00:15:48.722Z,1.31
2023-03-15T00:18:16.946Z,1.37
2023-03-15T00:20:43.773Z,1.38
2023-03-15T00:23:11.034Z,1.54
2023-03-15T00:25:37.828Z,1.41
2023-03-15T00:28:04.672Z,1.45
2023-03-15T00:30:32.437Z,1.59
2023-03-15T00:32:58.959Z,1.64
2023-03-15T00:35:25.648Z,1.59
2023-03-15T00:37:56.284Z,1.66
2023-03-15T00:40:23.997Z,1.71
2023-03-15T00:42:52.081Z,1.78
2023-03-15T00:45:20.333Z,1.72
2023-03-15T00:47:51.504Z,1.78
2023-03-15T00:50:18.267Z,1.68
2023-03-15T00:52:44.766Z,1.84
2023-03-15T00:55:15.643Z,1.92
2023-03-15T00:57:44.097Z,1.91
2023-03-15T01:00:17.179Z,1.91
2023-03-15T01:02:43.940Z,1.99
2023-03-15T01:05:10.421Z,1.90
2023-03-15T01:07:36.912Z,1.99
2023-03-15T01:10:06.440Z,1.98
2023-03-15T01:12:33.942Z,2.02
2023-03-15T01:15:02.208Z,2.04
2023-03-15T01:17:28.991Z,2.08
2023-03-15T01:19:55.505Z,2.07
2023-03-15T01:22:22.203Z,2.23
2023-03-15T01:24:48.618Z,2.13
2023-03-15T01:27:15.050Z,2.08
2023-03-15T01:29:41.602Z,2.16
2023-03-15T01:32:09.659Z,1.98
2023-03-15T01:34:37.127Z,2.14
2023-03-15T01:37:03.916Z,2.05
2023-03-15T01:39:39.202Z,2.08
2023-03-15T01:42:06.186Z,2.06
2023-03-15T01:44:50.006Z,2.09
2023-03-15T01:47:17.026Z,2.06
2023-03-15T01:49:46.375Z,2.06
2023-03-15T01:52:17.699Z,2.06
2023-03-15T01:55:21.134Z,2.00
2023-03-15T01:57:58.847Z,2.02
2023-03-15T02:00:27.775Z,2.01
2023-03-15T02:03:01.326Z,2.07
2023-03-15T02:05:34.028Z,2.01
2023-03-15T02:08:06.260Z,1.96
2023-03-15T02:10:38.652Z,1.97
2023-03-15T02:13:06.696Z,1.98
2023-03-15T02:15:33.600Z,2.03
2023-03-15T02:18:03.918Z,1.98
2023-03-15T02:20:39.645Z,2.04
2023-03-15T02:23:12.792Z,1.90
2023-03-15T02:25:44.076Z,1.95
2023-03-15T02:28:13.391Z,1.92
2023-03-15T02:30:42.811Z,1.95
2023-03-15T02:33:24.210Z,1.87
2023-03-15T02:35:53.013Z,1.79
2023-03-15T02:38:19.838Z,1.93
2023-03-15T02:40:47.245Z,1.93
2023-03-15T02:43:22.948Z,1.80
2023-03-15T02:45:50.000Z,1.80
2023-03-15T02:48:17.990Z,1.85
2023-03-15T02:50:44.435Z,1.85
2023-03-15T02:53:12.416Z,1.81
2023-03-15T02:55:39.258Z,1.77
2023-03-15T02:58:05.724Z,1.74
2023-03-15T03:00:32.469Z,1.74
2023-03-15T03:02:58.867Z,1.72
2023-03-15T03:05:25.477Z,1.70
2023-03-15T03:07:51.969Z,1.62
2023-03-15T03:10:20.312Z,1.51
2023-03-15T03:12:54.446Z,1.50
2023-03-15T03:15:28.832Z,1.46
2023-03-15T03:17:55.481Z,1.35
2023-03-15T03:20:23.237Z,1.25
2023-03-15T03:22:49.746Z,1.27
2023-03-15T03:25:17.895Z,1.26
2023-03-15T03:27:46.581Z,1.34
2023-03-15T03:30:14.341Z,1.25
2023-03-15T03:32:45.901Z,1.26
2023-03-15T03:35:15.913Z,1.38
2023-03-15T03:37:42.891Z,1.24
2023-03-15T03:40:14.734Z,1.31
2023-03-15T03:42:41.647Z,1.22
2023-03-15T03:45:09.024Z,1.13
2023-03-15T03:47:41.123Z,1.28
2023-03-15T03:50:09.808Z,1.25
2023-03-15T03:52:36.542Z,1.37
2023-03-15T03:55:16.083Z,1.35
2023-03-15T03:57:43.750Z,1.36
2023-03-15T04:00:16.014Z,1.37
2023-03-15T04:02:43.388Z,1.41
2023-03-15T04:05:12.406Z,1.48
2023-03-15T04:07:39.135Z,1.44
2023-03-15T04:10:06.829Z,1.47
2023-03-15T04:12:34.838Z,1.34
2023-03-15T04:15:01.515Z,1.44
2023-03-15T04:17:32.434Z,1.46
2023-03-15T04:20:01.844Z,1.46
2023-03-15T04:22:30.453Z,1.43
2023-03-15T04:25:07.354Z,1.53
2023-03-15T04:27:43.435Z,1.52
2023-03-15T04:30:29.948Z,1.60
2023-03-15T04:33:19.599Z,1.54
2023-03-15T04:36:02.835Z,1.47
2023-03-15T04:39:09.849Z,1.50
2023-03-15T04:41:50.474Z,1.50
2023-03-15T04:44:41.994Z,1.37
2023-03-15T04:47:17.993Z,1.31
2023-03-15T04:50:07.557Z,1.28
2023-03-15T04:52:48.659Z,1.31
2023-03-15T04:55:41.489Z,1.49
2023-03-15T04:58:13.796Z,1.46
2023-03-15T05:00:56.170Z,1.44
2023-03-15T05:03:29.666Z,1.41
2023-03-15T05:06:21.343Z,1.53
2023-03-15T05:09:19.178Z,1.64
2023-03-15T05:11:55.897Z,1.51
2023-03-15T05:14:37.470Z,1.60
2023-03-15T05:17:15.290Z,1.48
2023-03-15T05:20:13.362Z,1.58
2023-03-15T05:22:53.130Z,1.57
2023-03-15T05:25:19.549Z,1.66
2023-03-15T05:28:04.916Z,1.65
2023-03-15T05:30:42.628Z,1.54
2023-03-15T05:33:35.161Z,1.55
2023-03-15T05:36:15.311Z,1.72
2023-03-15T05:39:05.598Z,1.67
2023-03-15T05:41:47.010Z,1.65
2023-03-15T05:44:42.576Z,1.64
2023-03-15T05:47:34.899Z,1.59
2023-03-15T05:50:08.191Z,1.64
2023-03-15T05:52:55.450Z,1.67
2023-03-15T05:55:32.197Z,1.64
2023-03-15T05:58:14.891Z,1.71
2023-03-15T06:01:09.550Z,1.77
2023-03-15T06:03:56.057Z,1.78
2023-03-15T06:06:28.288Z,1.92
2023-03-15T06:08:55.026Z,1.84
2023-03-15T06:11:22.000Z,1.88
2023-03-15T06:13:49.506Z,1.89
2023-03-15T06:16:30.416Z,1.83
2023-03-15T06:18:58.934Z,1.84
2023-03-15T06:21:25.612Z,1.84
2023-03-15T06:23:52.063Z,1.74
2023-03-15T06:26:19.236Z,1.90
2023-03-15T06:28:48.690Z,1.82
2023-03-15T06:31:15.640Z,1.77
2023-03-15T06:33:51.910Z,1.77
2023-03-15T06:36:19.265Z,1.83
2023-03-15T06:38:45.909Z,1.85
2023-03-15T06:41:15.261Z,1.89
2023-03-15T06:43:42.506Z,1.76
2023-03-15T06:46:09.534Z,1.94
2023-03-15T06:48:36.446Z,1.99
2023-03-15T06:51:05.789Z,1.92
2023-03-15T06:53:32.699Z,1.97
2023-03-15T06:55:59.491Z,1.91
2023-03-15T06:58:25.964Z,1.88
2023-03-15T07:00:52.409Z,1.91
2023-03-15T07:03:19.524Z,1.96
2023-03-15T07:05:46.485Z,2.10
2023-03-15T07:08:13.601Z,2.06
2023-03-15T07:10:40.109Z,2.05
2023-03-15T07:13:06.896Z,2.02
2023-03-15T07:15:33.760Z,1.97
2023-03-15T07:18:00.629Z,1.95
2023-03-15T07:20:27.032Z,2.04
2023-03-15T07:22:53.480Z,1.96
2023-03-15T07:25:23.899Z,1.99
2023-03-15T07:27:51.012Z,2.14
2023-03-15T07:30:18.034Z,2.06
2023-03-15T07:32:44.724Z,1.95
2023-03-15T07:35:13.534Z,2.11
2023-03-15T07:37:44.306Z,2.21
2023-03-15T07:40:16.019Z,2.29
2023-03-15T07:42:52.345Z,2.31
2023-03-15T07:45:18.728Z,2.30
2023-03-15T07:47:45.628Z,2.34
2023-03-15T07:50:17.686Z,2.40
2023-03-15T07:52:46.924Z,2.42
2023-03-15T07:55:14.193Z,2.37
2023-03-15T07:57:40.955Z,2.57
2023-03-15T08:00:09.365Z,2.65
2023-03-15T08:02:38.538Z,2.66
2023-03-15T08:05:07.221Z,2.72
2023-03-15T08:07:33.947Z,2.78
2023-03-15T08:10:01.695Z,2.79
2023-03-15T08:12:30.079Z,2.84
2023-03-15T08:14:56.561Z,2.90
2023-03-15T08:17:22.981Z,2.94
2023-03-15T08:19:49.540Z,2.99
2023-03-15T08:22:16.466Z,2.99
2023-03-15T08:24:42.918Z,3.11
2023-03-15T08:27:10.257Z,3.10
2023-03-15T08:29:37.254Z,3.17
2023-03-15T08:32:04.180Z,3.14
2023-03-15T08:34:32.695Z,3.30
2023-03-15T08:36:59.196Z,3.31
2023-03-15T08:39:25.653Z,3.51
2023-03-15T08:41:52.123Z,3.66
2023-03-15T08:44:18.648Z,3.59
2023-03-15T08:46:45.119Z,3.53
2023-03-15T08:49:12.801Z,3.60
2023-03-15T08:51:39.523Z,3.38
2023-03-15T08:54:07.038Z,3.27
2023-03-15T08:56:33.858Z,3.30
2023-03-15T08:59:00.547Z,3.37
2023-03-15T09:01:30.214Z,3.29
2023-03-15T09:03:56.861Z,3.53
2023-03-15T09:06:23.403Z,3.60
2023-03-15T09:08:50.093Z,3.66
2023-03-15T09:11:16.830Z,3.90
2023-03-15T09:13:43.378Z,3.81
2023-03-15T09:16:09.794Z,3.84
2023-03-15T09:18:36.354Z,3.90
2023-03-15T09:21:03.232Z,3.77
2023-03-15T09:23:29.724Z,3.81
2023-03-15T09:25:56.209Z,3.83
2023-03-15T09:28:22.606Z,3.91
2023-03-15T09:30:49.071Z,4.02
2023-03-15T09:33:15.533Z,4.01
2023-03-15T09:35:42.340Z,3.96
2023-03-15T09:38:09.068Z,4.01
2023-03-15T09:40:42.293Z,3.93
2023-03-15T09:43:14.745Z,4.01
2023-03-15T09:46:06.888Z,4.25
2023-03-15T09:48:40.896Z,4.33
2023-03-15T09:51:28.342Z,4.52
2023-03-15T09:54:00.152Z,4.64
2023-03-15T09:56:31.279Z,4.66
2023-03-15T09:59:02.930Z,4.73
2023-03-15T10:01:35.044Z,4.86
2023-03-15T10:04:27.353Z,4.88
2023-03-15T10:06:56.531Z,4.75
2023-03-15T10:09:26.573Z,5.01
2023-03-15T10:12:21.959Z,5.00
2023-03-15T10:15:02.014Z,5.28
2023-03-15T10:17:28.375Z,5.25
2023-03-15T10:20:12.602Z,5.23
2023-03-15T10:22:53.839Z,5.32
2023-03-15T10:25:31.216Z,5.49
2023-03-15T10:28:04.461Z,5.45
2023-03-15T10:30:33.316Z,5.34
2023-03-15T10:33:26.411Z,5.65
2023-03-15T10:36:01.224Z,5.51
2023-03-15T10:38:34.261Z,5.42
2023-03-15T10:41:00.780Z,5.55
2023-03-15T10:43:32.079Z,5.41
2023-03-15T10:46:16.945Z,5.30
2023-03-15T10:49:00.188Z,5.09
2023-03-15T10:51:37.958Z,5.06
2023-03-15T10:54:06.923Z,4.99
2023-03-15T10:57:00.581Z,4.95
2023-03-15T10:59:30.430Z,5.16
2023-03-15T11:02:20.079Z,4.93
2023-03-15T11:05:02.832Z,4.91
2023-03-15T11:07:29.607Z,5.18
2023-03-15T11:10:00.952Z,5.22
2023-03-15T11:12:34.988Z,5.30
2023-03-15T11:15:14.000Z,5.31
2023-03-15T11:17:46.783Z,5.42
2023-03-15T11:20:36.278Z,5.61
2023-03-15T11:23:14.957Z,5.82
2023-03-15T11:25:41.451Z,5.93
2023-03-15T11:28:15.635Z,5.92
2023-03-15T11:30:43.116Z,5.93
2023-03-15T11:33:26.898Z,6.20
2023-03-15T11:35:58.288Z,6.22
2023-03-15T11:38:35.197Z,6.38
2023-03-15T11:41:11.565Z,6.63
2023-03-15T11:43:53.872Z,6.51
2023-03-15T11:46:43.073Z,6.79
2023-03-15T11:49:17.925Z,6.82
2023-03-15T11:51:45.672Z,6.64
2023-03-15T11:54:17.390Z,6.55
2023-03-15T11:56:43.741Z,6.62
2023-03-15T11:59:15.414Z,6.30
2023-03-15T12:02:09.962Z,6.05
2023-03-15T12:04:39.720Z,5.86
2023-03-15T12:07:30.092Z,5.60
2023-03-15T12:10:20.949Z,5.60
2023-03-15T12:12:58.296Z,4.35
2023-03-15T12:15:24.880Z,3.84
2023-03-15T12:17:55.281Z,3.28
2023-03-15T12:20:37.729Z,3.02
2023-03-15T12:23:19.161Z,2.71
2023-03-15T12:25:56.099Z,2.49
2023-03-15T12:28:28.598Z,2.11
2023-03-15T12:30:59.118Z,2.10
2023-03-15T12:33:28.017Z,1.93
2023-03-15T12:36:07.785Z,1.89
2023-03-15T12:38:41.779Z,1.69
2023-03-15T12:41:29.731Z,1.64
2023-03-15T12:44:21.890Z,1.47
2023-03-15T12:46:48.258Z,1.42
2023-03-15T12:49:23.526Z,1.83
2023-03-15T12:52:13.811Z,2.27
2023-03-15T12:54:49.575Z,2.26
2023-03-15T12:57:25.610Z,2.29
2023-03-15T12:59:58.347Z,2.33
2023-03-15T13:02:49.491Z,2.15
2023-03-15T13:05:37.420Z,2.51
2023-03-15T13:08:23.789Z,2.61
2023-03-15T13:11:12.838Z,2.83
2023-03-15T13:14:05.564Z,3.01
2023-03-15T13:16:39.034Z,3.24
2023-03-15T13:19:30.562Z,3.46
2023-03-15T13:21:59.966Z,3.53
2023-03-15T13:24:31.978Z,3.41
2023-03-15T13:27:06.284Z,3.34
2023-03-15T13:29:33.424Z,3.38
2023-03-15T13:32:13.930Z,3.32
2023-03-15T13:34:42.114Z,3.47
2023-03-15T13:37:22.202Z,3.47
2023-03-15T13:40:06.067Z,3.56
2023-03-15T13:42:35.524Z,3.96
2023-03-15T13:45:14.102Z,4.14
2023-03-15T13:47:42.593Z,4.30
2023-03-15T13:50:13.982Z,4.22
2023-03-15T13:52:41.566Z,4.49
2023-03-15T13:55:09.996Z,4.55
2023-03-15T13:57:36.829Z,4.53
2023-03-15T14:00:13.818Z,4.57
2023-03-15T14:02:42.998Z,4.44
2023-03-15T14:05:19.299Z,4.32
2023-03-15T14:07:49.504Z,4.49
2023-03-15T14:10:18.858Z,4.48
2023-03-15T14:12:46.124Z,4.65
2023-03-15T14:15:20.452Z,4.63
2023-03-15T14:18:16.946Z,4.70
2023-03-15T14:20:53.519Z,4.77
2023-03-15T14:23:24.297Z,4.78
2023-03-15T14:25:56.826Z,4.78
2023-03-15T14:28:24.709Z,4.49
2023-03-15T14:30:54.302Z,4.74
2023-03-15T14:33:40.713Z,4.79
2023-03-15T14:36:21.160Z,4.77
2023-03-15T14:38:56.979Z,5.11
2023-03-15T14:41:23.704Z,5.14
2023-03-15T14:43:50.188Z,5.22
2023-03-15T14:46:16.730Z,5.11
2023-03-15T14:48:43.514Z,5.20
2023-03-15T14:51:16.615Z,5.25
2023-03-15T14:53:44.037Z,5.28
2023-03-15T14:56:13.292Z,5.06
2023-03-15T14:58:41.052Z,5.03
2023-03-15T15:01:10.044Z,5.13
2023-03-15T15:03:47.304Z,5.18
2023-03-15T15:06:15.554Z,5.32
2023-03-15T15:08:47.397Z,5.28
2023-03-15T15:11:15.418Z,5.33
2023-03-15T15:13:42.100Z,5.30
2023-03-15T15:16:09.029Z,5.34
2023-03-15T15:18:37.262Z,5.43
2023-03-15T15:21:33.911Z,5.49
2023-03-15T15:24:03.128Z,5.43
2023-03-15T15:26:31.845Z,5.62
2023-03-15T15:28:59.260Z,5.60
2023-03-15T15:31:28.219Z,5.62
2023-03-15T15:33:56.121Z,5.56
2023-03-15T15:36:25.637Z,5.62
2023-03-15T15:38:52.824Z,5.55
2023-03-15T15:41:24.028Z,5.59
2023-03-15T15:43:51.163Z,5.72
2023-03-15T15:46:17.638Z,5.79
2023-03-15T15:48:45.638Z,5.79
2023-03-15T15:51:18.119Z,5.75
2023-03-15T15:53:44.559Z,5.76
2023-03-15T15:56:14.443Z,5.66
2023-03-15T15:58:42.516Z,5.60
2023-03-15T16:01:16.047Z,5.71
2023-03-15T16:03:43.101Z,5.67
2023-03-15T16:06:21.097Z,5.77
2023-03-15T16:08:50.659Z,5.61
2023-03-15T16:11:17.557Z,5.70
2023-03-15T16:13:45.837Z,5.67
2023-03-15T16:16:15.346Z,5.60
2023-03-15T16:18:42.807Z,5.49
2023-03-15T16:21:33.552Z,5.35
2023-03-15T16:24:15.656Z,5.35
2023-03-15T16:26:44.995Z,5.38
2023-03-15T16:29:24.333Z,5.41
2023-03-15T16:31:51.252Z,5.25
2023-03-15T16:34:18.770Z,5.22
2023-03-15T16:36:49.333Z,5.14
2023-03-15T16:39:17.223Z,5.03
2023-03-15T16:41:43.677Z,5.06
2023-03-15T16:44:18.414Z,5.11
2023-03-15T16:46:45.239Z,5.05
2023-03-15T16:49:14.268Z,4.99
2023-03-15T16:51:45.624Z,5.01
2023-03-15T16:54:24.191Z,4.94
2023-03-15T16:56:54.180Z,4.81
2023-03-15T16:59:21.160Z,4.64
2023-03-15T17:01:49.294Z,4.52
2023-03-15T17:04:16.125Z,4.49
2023-03-15T17:06:47.488Z,4.41
2023-03-15T17:09:23.247Z,4.43
2023-03-15T17:11:52.263Z,4.29
2023-03-15T17:14:34.776Z,4.25
2023-03-15T17:17:02.646Z,4.15
2023-03-15T17:19:29.052Z,4.07
2023-03-15T17:21:55.584Z,4.02
2023-03-15T17:24:22.312Z,3.97
2023-03-15T17:26:48.867Z,3.87
2023-03-15T17:29:15.406Z,3.82
2023-03-15T17:31:42.530Z,3.76
2023-03-15T17:34:09.123Z,3.70
2023-03-15T17:36:37.767Z,3.63
2023-03-15T17:39:06.668Z,3.58
2023-03-15T17:41:36.916Z,3.53
2023-03-15T17:44:04.287Z,3.49
2023-03-15T17:46:33.369Z,3.40
2023-03-15T17:49:01.104Z,3.31
2023-03-15T17:51:30.887Z,3.28
2023-03-15T17:53:59.211Z,3.21
2023-03-15T17:56:27.397Z,3.08
2023-03-15T17:58:53.959Z,2.94
2023-03-15T18:01:23.135Z,2.87
2023-03-15T18:03:50.691Z,2.79
2023-03-15T18:06:19.428Z,2.81
2023-03-15T18:08:46.374Z,2.78
2023-03-15T18:11:22.466Z,2.73
2023-03-15T18:13:49.295Z,2.71
2023-03-15T18:16:15.871Z,2.69
2023-03-15T18:18:42.300Z,2.66
2023-03-15T18:21:17.308Z,2.63
2023-03-15T18:23:44.667Z,2.59
2023-03-15T18:26:12.953Z,2.62
2023-03-15T18:28:40.222Z,2.53
2023-03-15T18:31:17.326Z,2.51
2023-03-15T18:33:44.390Z,2.45
2023-03-15T18:36:11.786Z,2.41
2023-03-15T18:38:39.188Z,2.38
2023-03-15T18:41:26.124Z,2.32
2023-03-15T18:43:52.686Z,2.23
2023-03-15T18:46:26.820Z,2.25
2023-03-15T18:48:54.000Z,2.25
2023-03-15T18:51:23.127Z,2.23
2023-03-15T18:53:50.011Z,2.15
2023-03-15T18:56:19.715Z,2.16
2023-03-15T18:58:47.311Z,2.07
2023-03-15T19:01:14.374Z,2.07
2023-03-15T19:03:40.876Z,2.08
2023-03-15T19:06:09.320Z,2.06
2023-03-15T19:08:36.063Z,2.03
2023-03-15T19:11:04.098Z,2.02
2023-03-15T19:13:30.744Z,2.02
2023-03-15T19:15:57.734Z,2.05
2023-03-15T19:18:25.164Z,2.00
2023-03-15T19:20:52.924Z,2.03
2023-03-15T19:23:20.705Z,1.94
2023-03-15T19:25:48.775Z,1.93
2023-03-15T19:28:16.016Z,1.88
2023-03-15T19:30:42.687Z,1.84
2023-03-15T19:33:09.311Z,1.80
2023-03-15T19:35:36.370Z,1.75
2023-03-15T19:38:04.086Z,1.69
2023-03-15T19:40:31.721Z,1.71
2023-03-15T19:42:58.188Z,1.72
2023-03-15T19:45:24.605Z,1.73
2023-03-15T19:47:51.038Z,1.69
2023-03-15T19:50:17.604Z,1.65
2023-03-15T19:52:46.074Z,1.59
2023-03-15T19:55:14.729Z,1.54
2023-03-15T19:57:41.524Z,1.47
2023-03-15T20:00:12.917Z,1.41
2023-03-15T20:02:41.161Z,1.39
2023-03-15T20:05:10.032Z,1.35
2023-03-15T20:07:37.378Z,1.29
2023-03-15T20:10:06.007Z,1.22
2023-03-15T20:12:32.723Z,1.14
2023-03-15T20:14:59.177Z,1.14
2023-03-15T20:17:26.862Z,1.14
2023-03-15T20:19:53.353Z,1.06
2023-03-15T20:22:19.852Z,1.01
2023-03-15T20:24:46.394Z,0.98
2023-03-15T20:27:13.282Z,0.93
2023-03-15T20:29:39.896Z,0.88
2023-03-15T20:32:06.743Z,0.82
2023-03-15T20:34:33.414Z,0.82
2023-03-15T20:37:00.034Z,0.78
2023-03-15T20:39:27.200Z,0.77
2023-03-15T20:41:53.732Z,0.74
2023-03-15T20:44:20.127Z,0.68
2023-03-15T20:46:46.739Z,0.71
2023-03-15T20:49:14.158Z,0.72
2023-03-15T20:51:41.254Z,0.77
2023-03-15T20:54:07.770Z,0.85
2023-03-15T20:56:34.338Z,0.87
2023-03-15T20:59:01.936Z,0.81
2023-03-15T21:01:28.572Z,0.80
2023-03-15T21:03:56.192Z,0.81
2023-03-15T21:06:23.081Z,0.78
2023-03-15T21:08:50.089Z,0.78
2023-03-15T21:11:16.846Z,0.80
2023-03-15T21:13:43.390Z,0.73
2023-03-15T21:16:12.238Z,0.69
2023-03-15T21:18:39.104Z,0.68
2023-03-15T21:21:07.675Z,0.62
2023-03-15T21:23:34.950Z,0.59
2023-03-15T21:26:07.683Z,0.59
2023-03-15T21:28:34.914Z,0.67
2023-03-15T21:31:02.014Z,0.68
2023-03-15T21:33:30.381Z,0.66
2023-03-15T21:35:58.989Z,0.66
2023-03-15T21:38:27.204Z,0.60
2023-03-15T21:40:59.182Z,0.51
2023-03-15T21:43:31.148Z,0.42
2023-03-15T21:46:16.176Z,0.27
2023-03-15T21:48:42.693Z,0.20
2023-03-15T21:51:09.661Z,0.11
2023-03-15T21:53:36.648Z,0.06
2023-03-15T21:56:03.994Z,0.04
2023-03-15T21:58:30.841Z,0.03
2023-03-15T22:00:58.247Z,0.03
2023-03-15T22:03:25.258Z,0.05
2023-03-15T22:05:52.505Z,0.11
2023-03-15T22:08:18.998Z,0.08
2023-03-15T22:10:45.508Z,0.04
2023-03-15T22:13:12.029Z,0.02
2023-03-15T22:15:38.446Z,-0.03
2023-03-15T22:18:05.119Z,-0.13
2023-03-15T22:20:31.563Z,-0.18
2023-03-15T22:22:57.925Z,-0.17
2023-03-15T22:25:24.448Z,-0.17
2023-03-15T22:27:50.917Z,-0.22
2023-03-15T22:30:18.735Z,-0.27
2023-03-15T22:32:45.278Z,-0.27
2023-03-15T22:35:14.042Z,-0.26
2023-03-15T22:37:40.591Z,-0.25
2023-03-15T22:40:08.283Z,-0.25
2023-03-15T22:42:35.232Z,-0.23
2023-03-15T22:45:04.084Z,-0.25
2023-03-15T22:47:30.487Z,-0.27
2023-03-15T22:49:59.534Z,-0.32
2023-03-15T22:52:27.030Z,-0.29
2023-03-15T22:54:53.386Z,-0.35
2023-03-15T22:57:19.814Z,-0.43
2023-03-15T22:59:46.225Z,-0.41
2023-03-15T23:02:13.152Z,-0.45
2023-03-15T23:04:40.035Z,-0.46
2023-03-15T23:07:06.686Z,-0.47
2023-03-15T23:09:33.862Z,-0.49
2023-03-15T23:12:01.053Z,-0.48
2023-03-15T23:14:27.597Z,-0.51
2023-03-15T23:16:54.054Z,-0.53
2023-03-15T23:19:22.295Z,-0.58
2023-03-15T23:21:48.688Z,-0.58
2023-03-15T23:24:17.124Z,-0.56
2023-03-15T23:26:43.864Z,-0.57
2023-03-15T23:29:11.050Z,-0.56
2023-03-15T23:31:41.685Z,-0.52
2023-03-15T23:34:08.697Z,-0.46
2023-03-15T23:36:35.538Z,-0.45
2023-03-15T23:39:01.972Z,-0.46
2023-03-15T23:41:29.088Z,-0.42
2023-03-15T23:43:55.503Z,-0.35
2023-03-15T23:46:23.396Z,-0.31
2023-03-15T23:48:52.230Z,-0.27
2023-03-15T23:51:18.702Z,-0.25
2023-03-15T23:53:45.250Z,-0.23
2023-03-15T23:56:11.949Z,-0.24
2023-03-15T23:58:38.427Z,-0.35
